Time;durP1;ratioP1;P1;durP2;ratioP2;P2;SDS_P1;SDS_P2;PMS_P1;PMS_P2;Temp;Humidity;BMP_temperature;BMP_pressure;BME280_temperature;BME280_humidity;BME280_pressure;Samples;Min_cycle;Max_cycle;Signal;HPM_P1;HPM_P2
2022/08/19 00:00:58;;;;;;;19.37;8.80;;;;;;;23.20;73.63;99595.63;4205194;28;20266;-57
2022/08/19 00:03:25;;;;;;;18.03;8.97;;;;;;;23.28;73.70;99610.69;4196784;28;22797;-55
2022/08/19 00:05:51;;;;;;;19.10;9.30;;;;;;;23.13;74.41;99597.69;4205672;28;20287;-54
2022/08/19 00:08:18;;;;;;;14.60;9.33;;;;;;;23.10;74.66;99593.56;4202553;28;20316;-53
2022/08/19 00:10:45;;;;;;;18.13;9.70;;;;;;;23.14;74.54;99596.63;4208247;28;20660;-56
2022/08/19 00:13:12;;;;;;;17.17;9.53;;;;;;;23.11;74.80;99597.97;4208642;28;26290;-55
2022/08/19 00:15:38;;;;;;;19.27;9.80;;;;;;;23.06;74.99;99595.16;4201987;28;20271;-54
2022/08/19 00:18:05;;;;;;;17.07;9.20;;;;;;;23.13;74.87;99601.25;4212066;28;20246;-64
2022/08/19 00:20:32;;;;;;;22.00;9.47;;;;;;;23.03;75.35;99594.81;4199701;28;20247;-63
2022/08/19 00:22:58;;;;;;;24.33;9.97;;;;;;;22.99;75.25;99594.47;4202848;28;20292;-62
2022/08/19 00:25:25;;;;;;;20.17;10.77;;;;;;;22.94;75.55;99595.22;4246562;28;20236;-62
2022/08/19 00:27:58;;;;;;;18.73;9.47;;;;;;;22.90;75.78;99601.38;4205026;28;20314;-63
2022/08/19 00:30:27;;;;;;;18.20;9.90;;;;;;;22.84;75.97;99592.31;4203619;28;20346;-60
2022/08/19 00:32:57;;;;;;;16.17;9.63;;;;;;;22.79;76.83;99599.56;4214808;28;20314;-63
2022/08/19 00:35:23;;;;;;;20.90;9.67;;;;;;;22.79;76.54;99600.38;4196669;28;21239;-62
2022/08/19 00:37:50;;;;;;;19.87;10.67;;;;;;;22.75;76.60;99588.38;4198548;28;20976;-62
2022/08/19 00:40:18;;;;;;;19.33;10.50;;;;;;;22.73;76.65;99594.06;4190076;28;20241;-62
2022/08/19 00:42:44;;;;;;;16.10;10.13;;;;;;;22.77;76.50;99591.66;4199502;28;20274;-60
2022/08/19 00:45:18;;;;;;;16.93;8.87;;;;;;;22.70;76.85;99597.25;4201606;28;21549;-62
2022/08/19 00:47:45;;;;;;;15.07;9.97;;;;;;;22.70;76.83;99597.25;4215178;28;20251;-62
2022/08/19 00:50:15;;;;;;;20.57;9.90;;;;;;;22.73;76.69;99595.94;4201066;28;20469;-61
2022/08/19 00:52:45;;;;;;;23.67;9.87;;;;;;;22.63;76.95;99591.16;4213240;28;20239;-61
2022/08/19 00:55:21;;;;;;;20.83;9.43;;;;;;;22.69;77.03;99589.38;4201656;28;21153;-60
2022/08/19 00:57:55;;;;;;;19.47;9.30;;;;;;;22.67;76.96;99589.59;4201026;28;20231;-61
2022/08/19 01:00:24;;;;;;;15.13;9.60;;;;;;;22.63;77.02;99593.88;4202511;28;20860;-64
2022/08/19 01:02:51;;;;;;;16.07;9.20;;;;;;;22.68;76.94;99593.97;4195205;28;20253;-62
2022/08/19 01:05:25;;;;;;;19.87;10.07;;;;;;;22.64;77.17;99603.66;4205313;28;20226;-63
2022/08/19 01:07:51;;;;;;;18.87;9.80;;;;;;;22.60;77.71;99607.13;4200899;28;21762;-61
2022/08/19 01:10:21;;;;;;;20.43;9.67;;;;;;;22.58;77.54;99606.53;4203414;28;21130;-63
2022/08/19 01:12:48;;;;;;;16.03;9.47;;;;;;;22.55;77.40;99605.13;4200324;28;21749;-63
2022/08/19 01:15:18;;;;;;;17.07;10.07;;;;;;;22.65;77.07;99605.31;4191957;28;20245;-62
2022/08/19 01:17:45;;;;;;;18.43;9.73;;;;;;;22.57;77.56;99619.28;4201809;28;20241;-60
2022/08/19 01:20:16;;;;;;;18.63;9.90;;;;;;;22.54;77.80;99609.72;4202293;28;20234;-64
2022/08/19 01:22:47;;;;;;;14.80;9.07;;;;;;;22.57;77.79;99611.16;4203256;28;20245;-64
2022/08/19 01:25:15;;;;;;;16.63;10.00;;;;;;;22.49;77.80;99606.91;4195134;28;22775;-63
2022/08/19 01:27:47;;;;;;;17.47;11.13;;;;;;;22.47;78.10;99613.66;4204433;28;20244;-65
2022/08/19 01:30:18;;;;;;;20.43;9.53;;;;;;;22.42;78.83;99613.56;4201937;28;20261;-64
2022/08/19 01:32:45;;;;;;;15.30;9.80;;;;;;;22.46;78.70;99612.03;4200181;28;21755;-62
2022/08/19 01:35:13;;;;;;;15.80;9.07;;;;;;;22.50;78.25;99614.00;4198078;28;20377;-61
2022/08/19 01:37:52;;;;;;;17.00;10.37;;;;;;;22.37;78.83;99606.16;4199656;28;22666;-61
2022/08/19 01:40:20;;;;;;;23.77;9.47;;;;;;;22.43;78.73;99607.06;4219067;28;21152;-63
2022/08/19 01:42:50;;;;;;;17.10;9.90;;;;;;;22.44;78.87;99603.31;4195614;28;20258;-63
2022/08/19 01:45:18;;;;;;;21.93;10.53;;;;;;;22.37;79.14;99595.31;4201277;28;20249;-63
2022/08/19 01:47:44;;;;;;;24.67;10.40;;;;;;;22.34;78.71;99593.09;4197390;28;20252;-62
2022/08/19 01:50:29;;;;;;;18.33;10.53;;;;;;;22.38;78.75;99591.53;4205319;28;20294;-61
2022/08/19 01:52:55;;;;;;;17.40;10.47;;;;;;;22.40;78.90;99599.41;4202114;28;21461;-63
2022/08/19 01:55:36;;;;;;;20.17;10.47;;;;;;;22.38;78.93;99588.00;4195516;28;20246;-61
2022/08/19 01:58:11;;;;;;;18.00;11.13;;;;;;;22.41;78.61;99582.09;4205322;28;20301;-63
2022/08/19 02:00:38;;;;;;;24.87;11.17;;;;;;;22.46;78.38;99584.91;4213102;28;20244;-63
2022/08/19 02:03:06;;;;;;;23.67;10.67;;;;;;;22.39;78.66;99595.91;4201136;28;20244;-62
2022/08/19 02:05:32;;;;;;;21.13;11.27;;;;;;;22.38;78.86;99588.00;4199586;28;20242;-63
2022/08/19 02:07:59;;;;;;;18.53;11.47;;;;;;;22.38;78.85;99588.81;4207288;28;21726;-60
2022/08/19 02:10:26;;;;;;;22.40;11.30;;;;;;;22.45;78.29;99588.66;4203453;28;20254;-63
2022/08/19 02:12:52;;;;;;;18.63;10.87;;;;;;;22.36;78.64;99587.41;4202767;28;22237;-62
2022/08/19 02:15:19;;;;;;;19.23;10.60;;;;;;;22.30;79.23;99586.50;4197532;28;22824;-62
2022/08/19 02:17:47;;;;;;;27.47;11.53;;;;;;;22.34;78.64;99577.66;4202792;28;21852;-62
2022/08/19 02:20:14;;;;;;;20.20;10.80;;;;;;;22.37;78.56;99586.38;4197860;28;21400;-62
2022/08/19 02:22:42;;;;;;;18.63;10.13;;;;;;;22.34;79.06;99587.69;4196405;28;20256;-62
2022/08/19 02:25:13;;;;;;;20.57;12.10;;;;;;;22.26;78.86;99583.44;4212020;28;20328;-61
2022/08/19 02:27:40;;;;;;;21.37;11.90;;;;;;;22.24;79.10;99577.47;4219526;28;21556;-61
2022/08/19 02:30:11;;;;;;;22.10;11.20;;;;;;;22.19;79.19;99573.81;4198930;28;20840;-62
2022/08/19 02:32:39;;;;;;;17.03;10.93;;;;;;;22.24;78.82;99572.06;4188157;28;20227;-62
2022/08/19 02:35:11;;;;;;;19.00;10.73;;;;;;;22.20;78.92;99576.28;4211209;28;20400;-62
2022/08/19 02:40:23;;;;;;;18.50;11.57;;;;;;;22.12;79.61;99573.94;4205038;28;20232;-60
2022/08/19 02:42:50;;;;;;;17.90;11.30;;;;;;;22.07;79.63;99577.38;4203534;28;20236;-63
2022/08/19 02:45:17;;;;;;;21.97;11.73;;;;;;;22.05;80.13;99576.78;4200487;28;20240;-62
2022/08/19 02:47:43;;;;;;;20.00;12.03;;;;;;;22.08;79.71;99578.22;4200118;28;20240;-61
2022/08/19 02:50:10;;;;;;;21.07;11.93;;;;;;;22.02;79.93;99577.28;4215712;28;20240;-62
2022/08/19 02:52:37;;;;;;;21.50;12.50;;;;;;;22.04;79.96;99579.75;4199836;28;20418;-62
2022/08/19 02:55:04;;;;;;;23.23;12.17;;;;;;;22.04;79.67;99582.47;4189059;28;20245;-63
2022/08/19 02:57:31;;;;;;;21.43;11.27;;;;;;;21.98;79.88;99578.00;4199132;28;20649;-64
2022/08/19 02:59:58;;;;;;;24.93;12.13;;;;;;;21.95;79.80;99579.31;4199878;28;20281;-62
2022/08/19 03:02:25;;;;;;;20.77;11.43;;;;;;;21.96;80.04;99575.56;4194471;28;20311;-63
2022/08/19 03:04:51;;;;;;;20.43;11.67;;;;;;;22.00;79.97;99573.16;4210742;28;20236;-62
2022/08/19 03:07:18;;;;;;;19.20;11.67;;;;;;;22.06;79.31;99575.75;4210967;28;20337;-62
2022/08/19 03:09:45;;;;;;;24.13;11.43;;;;;;;22.09;79.08;99577.97;4210273;28;21070;-60
2022/08/19 03:12:11;;;;;;;23.47;11.57;;;;;;;22.04;79.68;99585.19;4203916;28;20893;-61
2022/08/19 03:14:38;;;;;;;19.67;11.83;;;;;;;21.97;79.62;99581.78;4194324;28;20240;-63
2022/08/19 03:17:04;;;;;;;20.47;11.60;;;;;;;22.06;79.46;99575.75;4203314;28;20228;-62
2022/08/19 03:19:31;;;;;;;21.70;11.33;;;;;;;22.00;79.28;99568.56;4208845;28;20237;-61
2022/08/19 03:21:58;;;;;;;23.67;11.97;;;;;;;21.91;79.77;99565.44;4198478;28;20239;-62
2022/08/19 03:24:25;;;;;;;25.93;12.03;;;;;;;21.92;79.75;99563.53;4198964;28;20224;-61
2022/08/19 03:26:55;;;;;;;20.53;10.83;;;;;;;21.90;80.21;99565.66;4194123;28;21250;-62
2022/08/19 03:29:22;;;;;;;22.00;12.17;;;;;;;21.84;80.21;99577.44;4202430;28;20301;-62
2022/08/19 03:32:00;;;;;;;17.53;11.60;;;;;;;21.85;80.25;99582.63;4204130;28;20414;-63
2022/08/19 03:34:29;;;;;;;22.93;12.40;;;;;;;21.84;80.51;99582.88;4201592;28;20800;-61
2022/08/19 03:37:00;;;;;;;16.23;11.53;;;;;;;21.80;80.77;99587.97;4214127;28;22074;-64
2022/08/19 03:39:27;;;;;;;19.60;11.17;;;;;;;21.89;80.46;99585.69;4219979;28;20937;-62
2022/08/19 03:41:58;;;;;;;22.70;11.50;;;;;;;21.89;80.46;99585.69;4216376;28;25611;-63
2022/08/19 03:44:44;;;;;;;26.43;11.33;;;;;;;21.91;80.36;99592.53;4231652;28;20241;-62
2022/08/19 03:47:15;;;;;;;21.80;11.30;;;;;;;21.97;79.91;99593.44;4221392;28;20240;-63
2022/08/19 03:49:43;;;;;;;21.07;11.87;;;;;;;22.01;80.33;99594.63;4253825;28;20242;-64
2022/08/19 03:52:09;;;;;;;21.33;11.90;;;;;;;22.05;79.97;99605.78;4225072;28;25503;-62
2022/08/19 03:54:38;;;;;;;19.40;11.30;;;;;;;22.09;79.61;99602.34;4217816;28;22344;-63
2022/08/19 03:57:05;;;;;;;24.60;11.13;;;;;;;22.09;79.76;99601.53;4225447;28;21878;-62
2022/08/19 03:59:35;;;;;;;23.27;11.43;;;;;;;22.15;79.41;99606.00;4217217;28;21412;-63
2022/08/19 04:02:08;;;;;;;22.33;11.30;;;;;;;22.11;79.36;99602.13;4199164;28;20245;-62
2022/08/19 04:04:37;;;;;;;18.40;12.03;;;;;;;22.22;78.97;99606.69;4203759;28;20306;-64
2022/08/19 04:07:04;;;;;;;24.87;11.77;;;;;;;22.18;78.85;99605.50;4205907;28;21204;-62
2022/08/19 04:09:33;;;;;;;20.27;11.73;;;;;;;22.27;78.70;99598.66;4206339;28;20236;-61
2022/08/19 04:12:00;;;;;;;23.37;11.80;;;;;;;22.22;79.07;99598.56;4203810;28;20234;-64
2022/08/19 04:14:33;;;;;;;22.37;11.73;;;;;;;22.33;78.67;99596.84;4198459;28;21059;-64
2022/08/19 04:17:01;;;;;;;22.17;11.73;;;;;;;22.36;78.58;99604.53;4212505;28;20232;-62
2022/08/19 04:19:30;;;;;;;21.13;12.27;;;;;;;22.37;78.14;99594.50;4215615;28;20227;-65
2022/08/19 04:21:58;;;;;;;26.17;12.70;;;;;;;22.38;77.93;99594.22;4204852;28;23518;-61
2022/08/19 04:24:25;;;;;;;30.17;12.20;;;;;;;22.39;77.81;99590.47;4201132;28;21606;-63
2022/08/19 04:26:51;;;;;;;20.63;11.53;;;;;;;22.48;77.47;99596.34;4205229;28;20269;-64
2022/08/19 04:29:21;;;;;;;19.60;11.90;;;;;;;22.60;76.81;99596.28;4196200;28;23203;-63
2022/08/19 04:31:48;;;;;;;26.80;11.70;;;;;;;22.69;76.79;99597.50;4200200;28;20230;-63
2022/08/19 04:34:16;;;;;;;18.20;11.53;;;;;;;22.76;76.22;99606.31;4193249;28;20232;-64
2022/08/19 04:36:44;;;;;;;17.90;11.47;;;;;;;22.86;76.16;99608.38;4197099;28;20241;-61
2022/08/19 04:39:14;;;;;;;17.47;10.60;;;;;;;22.99;75.50;99610.75;4210052;28;20298;-62
2022/08/19 04:44:26;;;;;;;19.60;11.17;;;;;;;23.06;74.65;99603.31;4199840;28;20240;-61
2022/08/19 04:46:53;;;;;;;21.23;11.30;;;;;;;23.25;74.24;99601.16;4206083;28;20233;-64
2022/08/19 04:49:24;;;;;;;20.13;11.43;;;;;;;23.17;73.75;99591.50;4198748;28;20229;-62
2022/08/19 04:51:53;;;;;;;19.47;11.37;;;;;;;23.17;73.80;99586.09;4196733;28;22285;-65
2022/08/19 04:54:22;;;;;;;25.17;11.77;;;;;;;23.26;73.62;99588.41;4194577;28;20249;-66
2022/08/19 04:57:06;;;;;;;22.20;11.83;;;;;;;23.31;73.38;99596.59;4211614;28;21650;-63
2022/08/19 04:59:35;;;;;;;17.27;11.27;;;;;;;23.37;73.57;99603.75;4199156;28;20645;-65
2022/08/19 05:02:02;;;;;;;23.07;12.13;;;;;;;23.47;73.42;99606.63;4192758;28;20750;-65
2022/08/19 05:04:30;;;;;;;20.97;11.20;;;;;;;23.54;72.71;99601.81;4202635;28;21415;-63
2022/08/19 05:06:57;;;;;;;21.27;11.00;;;;;;;23.61;72.38;99601.63;4208103;28;20227;-62
2022/08/19 05:09:27;;;;;;;19.67;10.87;;;;;;;23.71;72.15;99607.19;4204180;28;23024;-62
2022/08/19 05:12:14;;;;;;;22.73;11.47;;;;;;;23.65;72.31;99604.66;4200427;28;21597;-61
2022/08/19 05:14:40;;;;;;;17.43;10.90;;;;;;;23.76;71.76;99604.59;4206319;28;20308;-63
2022/08/19 05:17:07;;;;;;;20.30;10.93;;;;;;;23.83;71.33;99596.25;4207389;28;20299;-62
2022/08/19 05:22:37;;;;;;;19.27;11.10;;;;;;;23.67;71.90;99610.66;4189361;28;20926;-61
2022/08/19 05:25:07;;;;;;;26.10;11.67;;;;;;;23.71;71.56;99618.06;4205373;28;22902;-64
2022/08/19 05:27:40;;;;;;;24.83;10.97;;;;;;;23.78;71.39;99617.91;4213448;28;21749;-62
2022/08/19 05:30:07;;;;;;;21.83;10.77;;;;;;;23.95;71.34;99617.84;4198843;28;23965;-61
2022/08/19 05:32:34;;;;;;;24.80;11.47;;;;;;;24.01;71.24;99620.38;4206699;28;20232;-63
2022/08/19 05:35:01;;;;;;;22.90;11.47;;;;;;;24.09;70.53;99618.28;4205130;28;22859;-61
2022/08/19 05:37:28;;;;;;;21.80;10.60;;;;;;;24.25;70.35;99622.81;4202590;28;20233;-64
2022/08/19 05:39:55;;;;;;;24.40;10.50;;;;;;;24.32;69.59;99626.16;4195906;28;20272;-62
2022/08/19 05:42:22;;;;;;;19.90;9.90;;;;;;;24.41;69.61;99627.34;4199395;28;20223;-63
2022/08/19 05:44:50;;;;;;;17.73;10.17;;;;;;;24.54;68.32;99641.69;4202203;28;20279;-61
2022/08/19 05:47:19;;;;;;;18.97;10.30;;;;;;;24.60;69.04;99636.00;4205220;28;21918;-61
2022/08/19 05:49:47;;;;;;;20.83;10.27;;;;;;;24.70;67.50;99640.75;4202563;28;20447;-63
2022/08/19 05:52:15;;;;;;;19.37;10.37;;;;;;;24.64;68.30;99636.31;4208088;28;20455;-62
2022/08/19 05:54:47;;;;;;;22.63;10.00;;;;;;;24.72;67.64;99638.56;4199998;28;25565;-61
2022/08/19 05:57:20;;;;;;;28.23;9.93;;;;;;;24.91;67.07;99630.03;4203433;28;20723;-61
2022/08/19 05:59:51;;;;;;;16.00;9.37;;;;;;;24.88;66.89;99619.66;4189444;28;25607;-59
2022/08/19 06:02:19;;;;;;;14.67;9.00;;;;;;;24.74;67.07;99616.53;4205612;28;20363;-59
2022/08/19 06:04:46;;;;;;;16.80;9.13;;;;;;;24.84;66.92;99614.75;4203958;28;20351;-61
2022/08/19 06:07:12;;;;;;;16.13;10.10;;;;;;;25.01;66.50;99613.78;4210287;28;20241;-59
2022/08/19 06:09:40;;;;;;;27.70;9.90;;;;;;;25.16;65.60;99607.63;4203977;28;21058;-62
2022/08/19 06:12:09;;;;;;;20.90;9.20;;;;;;;25.36;64.91;99609.72;4216188;28;20247;-62
2022/08/19 06:14:36;;;;;;;15.47;8.77;;;;;;;25.56;63.85;99604.34;4203030;28;21835;-61
2022/08/19 06:17:07;;;;;;;23.50;8.90;;;;;;;25.76;63.25;99624.66;4200101;28;20266;-60
2022/08/19 06:19:34;;;;;;;20.50;9.53;;;;;;;26.39;61.15;99638.28;4204352;28;20232;-61
2022/08/19 06:22:07;;;;;;;17.60;8.47;;;;;;;27.82;55.30;99659.31;4217031;28;22214;-61
2022/08/19 06:24:35;;;;;;;17.63;8.87;;;;;;;28.82;51.21;99667.34;4200662;28;20295;-61
2022/08/19 06:27:05;;;;;;;16.50;7.87;;;;;;;29.19;49.97;99667.88;4204052;28;20329;-61
2022/08/19 06:29:32;;;;;;;16.23;7.90;;;;;;;28.37;51.89;99654.72;4213537;28;20284;-61
2022/08/19 06:32:00;;;;;;;18.10;8.33;;;;;;;27.88;53.85;99652.75;4212247;28;20299;-60
2022/08/19 06:34:29;;;;;;;17.90;8.70;;;;;;;27.78;54.13;99648.91;4214399;28;20296;-68
2022/08/19 06:37:00;;;;;;;19.23;7.37;;;;;;;28.75;50.89;99664.09;4252421;28;20232;-76
2022/08/19 06:39:30;;;;;;;20.97;7.50;;;;;;;30.52;45.93;99676.59;4205628;28;20986;-74
2022/08/19 06:42:00;;;;;;;18.33;7.90;;;;;;;31.91;41.93;99679.50;4285911;28;20230;-73
2022/08/19 06:44:34;;;;;;;22.95;7.22;;;;;;;33.27;37.79;99699.13;4261779;28;23840;-71
2022/08/19 06:47:12;;;;;;;12.23;6.97;;;;;;;33.76;36.53;99700.91;4245329;28;20540;-73
2022/08/19 06:49:49;;;;;;;23.80;7.87;;;;;;;33.12;37.34;99701.13;4204741;28;20240;-73
2022/08/19 06:52:16;;;;;;;14.70;6.97;;;;;;;32.45;38.96;99689.97;4211313;28;20236;-72
2022/08/19 06:54:42;;;;;;;17.33;8.43;;;;;;;30.98;42.21;99671.25;4223185;28;20244;-72
2022/08/19 06:57:23;;;;;;;16.30;8.45;;;;;;;30.81;42.86;99665.44;4229512;28;20551;-71
2022/08/19 06:59:50;;;;;;;17.73;7.97;;;;;;;31.09;42.61;99667.22;4229907;28;20232;-72
2022/08/19 07:02:17;;;;;;;18.20;8.30;;;;;;;31.96;40.51;99673.94;4236622;28;20251;-71
2022/08/19 07:04:44;;;;;;;15.32;8.05;;;;;;;31.25;41.87;99669.69;4219891;28;20322;-71
2022/08/19 07:07:14;;;;;;;19.60;8.82;;;;;;;30.03;44.74;99667.59;4225943;28;20233;-70
2022/08/19 07:09:48;;;;;;;17.65;8.60;;;;;;;29.42;47.62;99667.13;4221141;28;20243;-71
2022/08/19 07:12:26;;;;;;;16.50;8.63;;;;;;;30.43;45.23;99670.94;4248023;28;20881;-71
2022/08/19 07:14:55;;;;;;;18.40;7.85;;;;;;;31.79;41.24;99681.94;4238794;28;20274;-70
2022/08/19 07:17:23;;;;;;;20.80;7.95;;;;;;;33.18;37.64;99704.59;4230943;28;21147;-74
2022/08/19 07:19:50;;;;;;;17.45;7.72;;;;;;;33.89;36.35;99712.16;4227633;28;20239;-70
2022/08/19 07:22:20;;;;;;;18.15;8.10;;;;;;;33.58;36.64;99705.50;4216845;28;20243;-73
2022/08/19 07:24:49;;;;;;;13.43;7.57;;;;;;;33.75;36.55;99692.94;4258436;28;20294;-69
2022/08/19 07:27:18;;;;;;;18.30;7.57;;;;;;;34.33;35.01;99694.59;4258952;28;20464;-71
2022/08/19 07:29:50;;;;;;;22.63;7.93;;;;;;;34.92;33.84;99690.59;4228720;28;20233;-70
2022/08/19 07:32:26;;;;;;;14.20;7.40;;;;;;;35.68;32.31;99690.00;4207854;28;22207;-73
2022/08/19 07:34:52;;;;;;;21.70;7.15;;;;;;;35.55;32.21;99679.94;4223172;28;20233;-72
2022/08/19 07:37:19;;;;;;;15.73;7.25;;;;;;;34.61;33.85;99672.25;4251444;28;21705;-72
2022/08/19 07:39:46;;;;;;;15.90;7.43;;;;;;;34.57;33.91;99674.00;4211941;28;20241;-71
2022/08/19 07:42:14;;;;;;;19.08;7.45;;;;;;;35.41;33.46;99689.25;4221046;28;20336;-71
2022/08/19 07:44:41;;;;;;;15.98;7.32;;;;;;;36.40;31.35;99693.72;4219336;28;20545;-73
2022/08/19 07:47:17;;;;;;;24.10;7.03;;;;;;;36.43;30.95;99697.78;4219994;28;20235;-71
2022/08/19 07:50:06;;;;;;;13.40;6.68;;;;;;;36.06;32.26;99701.06;4200450;28;21849;-71
2022/08/19 07:52:34;;;;;;;15.95;7.05;;;;;;;35.09;33.31;99687.81;4226048;28;20303;-70
2022/08/19 07:55:03;;;;;;;20.50;7.40;;;;;;;34.84;34.40;99687.53;4249333;28;20503;-71
2022/08/19 07:57:30;;;;;;;21.70;7.65;;;;;;;32.99;37.19;99666.13;4225327;28;20257;-71
2022/08/19 07:59:57;;;;;;;11.57;6.70;;;;;;;32.20;39.76;99661.88;4220436;28;20388;-71
2022/08/19 08:02:23;;;;;;;23.90;7.47;;;;;;;32.13;40.38;99655.97;4202429;28;20258;-71
2022/08/19 08:10:21;;;;;;;17.80;8.05;;;;;;;31.18;43.35;99641.78;4215298;28;20651;-69
2022/08/19 08:12:50;;;;;;;16.08;6.70;;;;;;;31.01;43.84;99645.09;4200541;28;20278;-72
2022/08/19 08:15:38;;;;;;;18.52;7.30;;;;;;;31.20;44.35;99640.38;4205347;28;20253;-71
2022/08/19 08:18:10;;;;;;;17.23;7.50;;;;;;;30.90;44.31;99650.75;4201237;28;22578;-70
2022/08/19 08:20:37;;;;;;;16.60;6.85;;;;;;;30.75;43.79;99661.16;4207516;28;22289;-70
2022/08/19 08:23:22;;;;;;;23.58;7.57;;;;;;;30.77;44.56;99661.69;4196601;28;21230;-71
2022/08/19 08:25:49;;;;;;;16.48;7.70;;;;;;;31.18;43.68;99661.03;4204653;28;20220;-71
2022/08/19 08:28:16;;;;;;;19.52;7.47;;;;;;;31.55;43.08;99663.69;4212112;28;20243;-71
2022/08/19 08:30:47;;;;;;;17.67;6.97;;;;;;;31.73;42.68;99664.72;4191047;28;20558;-69
2022/08/19 08:33:27;;;;;;;19.40;7.63;;;;;;;31.47;43.74;99664.38;4205184;28;20236;-71
2022/08/19 08:36:06;;;;;;;12.27;7.47;;;;;;;31.45;42.54;99663.88;4222908;28;20340;-74
2022/08/19 08:38:34;;;;;;;16.52;7.75;;;;;;;31.43;43.50;99666.09;4203558;28;20268;-70
2022/08/19 08:41:27;;;;;;;13.00;7.57;;;;;;;31.67;43.95;99654.13;4198175;28;20275;-72
2022/08/19 08:43:56;;;;;;;15.10;7.80;;;;;;;31.16;43.78;99655.00;4221700;28;20241;-71
2022/08/19 08:46:37;;;;;;;14.02;8.93;;;;;;;30.43;46.69;99657.22;4224923;28;20413;-72
2022/08/19 08:49:08;;;;;;;18.88;8.30;;;;;;;30.36;47.51;99648.53;4209736;28;21436;-71
2022/08/19 08:51:40;;;;;;;18.50;7.70;;;;;;;30.29;47.06;99655.19;4215683;28;20235;-71
2022/08/19 08:54:13;;;;;;;17.58;8.02;;;;;;;30.20;47.78;99662.41;4228211;28;20232;-70
2022/08/19 08:56:44;;;;;;;15.60;7.75;;;;;;;30.45;48.00;99666.78;4202035;28;22015;-70
2022/08/19 08:59:34;;;;;;;17.37;8.03;;;;;;;30.71;47.25;99678.22;4215959;28;20630;-71
2022/08/19 09:02:01;;;;;;;15.95;8.50;;;;;;;31.13;45.65;99670.97;4215279;28;20290;-72
2022/08/19 09:04:28;;;;;;;15.93;8.10;;;;;;;30.79;46.41;99662.16;4210710;28;20446;-70
2022/08/19 09:07:00;;;;;;;16.17;8.60;;;;;;;30.45;47.54;99668.72;4217037;28;20239;-70
2022/08/19 09:09:47;;;;;;;22.05;8.73;;;;;;;30.00;49.48;99663.50;4195248;28;21560;-72
2022/08/19 09:12:43;;;;;;;22.70;9.20;;;;;;;30.53;47.75;99659.81;4207681;28;20357;-74
2022/08/19 09:15:13;;;;;;;17.23;7.68;;;;;;;30.84;46.89;99664.88;4215403;28;20248;-72
2022/08/19 09:17:40;;;;;;;14.43;8.10;;;;;;;31.05;47.15;99674.44;4216107;28;20297;-71
2022/08/19 09:20:22;;;;;;;19.95;8.25;;;;;;;31.22;44.31;99673.88;4219948;28;20247;-72
2022/08/19 09:22:51;;;;;;;19.95;7.55;;;;;;;30.97;44.69;99671.53;4225766;28;20310;-72
2022/08/19 09:25:22;;;;;;;26.20;7.70;;;;;;;30.99;44.49;99667.38;4253060;28;20235;-72
2022/08/19 09:27:54;;;;;;;16.25;7.65;;;;;;;31.09;43.03;99675.47;4216954;28;21424;-70
2022/08/19 09:30:40;;;;;;;23.33;7.65;;;;;;;31.06;44.20;99673.31;4225944;28;21311;-73
2022/08/19 09:33:07;;;;;;;14.38;7.72;;;;;;;31.28;42.90;99691.09;4227172;28;20236;-73
2022/08/19 09:35:35;;;;;;;15.80;7.00;;;;;;;31.36;42.26;99687.66;4229819;28;20234;-72
2022/08/19 09:38:18;;;;;;;16.20;7.10;;;;;;;31.62;41.34;99698.22;4208326;28;20985;-72
2022/08/19 09:40:45;;;;;;;15.07;6.43;;;;;;;31.73;41.06;99694.97;4270607;28;22629;-72
2022/08/19 09:43:11;;;;;;;15.38;7.50;;;;;;;31.55;41.28;99690.38;4237293;28;21661;-73
2022/08/19 09:45:39;;;;;;;16.92;7.25;;;;;;;31.61;41.43;99694.66;4256180;28;21605;-75
2022/08/19 09:48:06;;;;;;;20.42;7.32;;;;;;;31.19;42.72;99690.97;4251197;28;20337;-71
2022/08/19 09:50:38;;;;;;;15.63;7.28;;;;;;;30.90;43.05;99691.16;4221453;28;20307;-71
2022/08/19 09:53:17;;;;;;;16.35;7.38;;;;;;;30.75;43.62;99688.63;4241569;28;25692;-73
2022/08/19 09:55:44;;;;;;;14.80;6.63;;;;;;;30.66;44.54;99680.22;4250096;28;20612;-71
2022/08/19 09:58:11;;;;;;;18.98;7.00;;;;;;;30.83;43.62;99682.44;4221979;28;23307;-72
2022/08/19 10:00:38;;;;;;;17.13;7.15;;;;;;;30.88;43.12;99671.41;4254533;28;20405;-73
2022/08/19 10:03:05;;;;;;;16.25;7.05;;;;;;;30.80;44.04;99677.56;4218132;28;20312;-72
2022/08/19 10:05:49;;;;;;;19.58;7.05;;;;;;;30.77;44.06;99669.91;4227188;28;20679;-70
2022/08/19 10:08:26;;;;;;;10.75;6.45;;;;;;;30.46;44.20;99665.69;4216073;28;20231;-73
2022/08/19 10:10:53;;;;;;;19.10;7.50;;;;;;;30.77;44.98;99665.22;4213045;28;21687;-73
2022/08/19 10:13:23;;;;;;;12.38;6.47;;;;;;;31.07;42.13;99663.13;4216063;28;20224;-74
2022/08/19 10:15:50;;;;;;;18.63;7.65;;;;;;;31.23;42.08;99655.44;4214097;28;20233;-74
2022/08/19 10:18:18;;;;;;;14.77;7.20;;;;;;;31.13;43.64;99661.94;4195538;28;20641;-72
2022/08/19 10:20:50;;;;;;;12.38;7.07;;;;;;;31.15;43.75;99656.94;4242200;28;20348;-73
2022/08/19 10:23:20;;;;;;;15.40;7.00;;;;;;;31.32;42.48;99665.44;4214991;28;20243;-73
2022/08/19 10:25:47;;;;;;;12.30;6.35;;;;;;;31.37;42.85;99658.22;4208836;28;21362;-73
2022/08/19 10:28:14;;;;;;;9.98;6.25;;;;;;;31.45;41.04;99660.31;4205541;28;20320;-70
2022/08/19 10:30:45;;;;;;;14.18;6.63;;;;;;;30.95;42.16;99658.09;4208994;28;20229;-71
2022/08/19 10:33:13;;;;;;;18.27;6.57;;;;;;;30.96;42.33;99650.69;4204381;28;20414;-72
2022/08/19 10:35:40;;;;;;;10.70;6.40;;;;;;;30.98;41.92;99654.78;4222725;28;20312;-69
2022/08/19 10:38:24;;;;;;;19.05;6.32;;;;;;;31.37;40.22;99663.72;4220402;28;22272;-71
2022/08/19 10:40:58;;;;;;;21.92;7.07;;;;;;;31.46;39.53;99665.50;4223676;28;26016;-71
2022/08/19 10:43:25;;;;;;;15.27;6.78;;;;;;;31.42;38.89;99652.66;4211400;28;20260;-70
2022/08/19 10:45:55;;;;;;;22.65;6.82;;;;;;;31.32;39.92;99659.13;4210248;28;20273;-72
2022/08/19 10:48:24;;;;;;;14.73;7.05;;;;;;;31.13;41.04;99670.97;4198218;28;20233;-73
2022/08/19 10:53:49;;;;;;;18.87;6.53;;;;;;;31.08;40.72;99654.59;4198784;28;20242;-74
2022/08/19 10:59:02;;;;;;;15.13;6.30;;;;;;;31.24;39.83;99648.84;4218729;28;20417;-73
2022/08/19 11:01:32;;;;;;;16.23;6.78;;;;;;;31.40;39.09;99647.47;4240367;28;20237;-71
2022/08/19 11:04:01;;;;;;;18.38;7.15;;;;;;;31.47;39.47;99649.84;4215118;28;20237;-71
2022/08/19 11:06:27;;;;;;;16.63;7.13;;;;;;;31.80;39.33;99642.31;4213992;28;20283;-71
2022/08/19 11:08:54;;;;;;;12.60;6.68;;;;;;;31.82;37.36;99656.56;4211714;28;20236;-71
2022/08/19 11:11:22;;;;;;;12.40;6.15;;;;;;;31.81;38.32;99646.69;4200034;28;20228;-72
2022/08/19 11:13:49;;;;;;;16.08;7.03;;;;;;;31.98;37.96;99640.56;4190420;28;20229;-74
2022/08/19 11:16:21;;;;;;;18.65;6.80;;;;;;;31.71;38.48;99638.63;4181918;28;20236;-70
2022/08/19 11:18:50;;;;;;;17.77;6.70;;;;;;;31.74;39.46;99627.00;4197996;28;20236;-71
2022/08/19 11:21:20;;;;;;;13.73;6.68;;;;;;;31.95;39.34;99621.91;4204896;28;20240;-70
2022/08/19 11:23:50;;;;;;;15.85;6.60;;;;;;;32.09;37.91;99631.00;4204292;28;20244;-69
2022/08/19 11:26:17;;;;;;;20.15;6.95;;;;;;;32.21;38.06;99624.94;4186500;28;20255;-71
2022/08/19 11:28:44;;;;;;;15.18;7.10;;;;;;;32.11;39.31;99622.44;4192983;28;20297;-71
2022/08/19 11:31:15;;;;;;;13.43;6.78;;;;;;;32.00;38.66;99629.28;4212136;28;20229;-70
2022/08/19 11:33:42;;;;;;;12.02;7.63;;;;;;;32.03;39.30;99623.13;4201021;28;20828;-69
2022/08/19 11:36:13;;;;;;;14.73;6.88;;;;;;;32.09;39.33;99621.91;4202481;28;20239;-69
2022/08/19 11:38:40;;;;;;;15.65;6.43;;;;;;;32.30;38.35;99617.59;4198829;28;21499;-73
2022/08/19 11:41:07;;;;;;;14.52;7.43;;;;;;;32.15;39.22;99616.00;4232782;28;20239;-71
2022/08/19 11:43:34;;;;;;;17.75;7.35;;;;;;;31.98;38.88;99610.31;4197486;28;20385;-74
2022/08/19 11:46:07;;;;;;;21.25;7.30;;;;;;;32.12;38.76;99611.13;4177198;28;23711;-70
2022/08/19 11:48:35;;;;;;;17.90;7.70;;;;;;;32.11;39.37;99605.91;4189092;28;21512;-72
2022/08/19 11:51:08;;;;;;;12.77;7.28;;;;;;;32.18;39.04;99603.56;4186997;28;21373;-72
2022/08/19 11:53:35;;;;;;;18.25;7.28;;;;;;;32.22;38.94;99596.31;4201226;28;20233;-70